createdAt,value
2023-01-29T00:00:56.744Z,19.55
2023-01-29T00:06:01.110Z,19.55
2023-01-29T00:11:04.329Z,19.52
2023-01-29T00:16:07.377Z,20.05
2023-01-29T00:21:12.132Z,17.85
2023-01-29T00:26:15.542Z,19.27
2023-01-29T00:31:23.599Z,18.58
2023-01-29T00:36:28.277Z,18.25
2023-01-29T00:41:50.519Z,21.13
2023-01-29T00:47:03.348Z,20.13
2023-01-29T00:52:30.214Z,20.33
2023-01-29T00:57:34.151Z,20.75
2023-01-29T01:02:54.892Z,18.33
2023-01-29T01:07:59.633Z,18.85
2023-01-29T01:13:03.610Z,21.48
2023-01-29T01:18:06.781Z,18.83
2023-01-29T01:23:14.809Z,20.05
2023-01-29T01:28:17.496Z,21.02
2023-01-29T01:33:20.209Z,21.00
2023-01-29T01:38:24.307Z,23.60
2023-01-29T01:43:26.930Z,24.50
2023-01-29T01:48:29.588Z,22.63
2023-01-29T01:53:38.528Z,23.80
2023-01-29T01:58:43.824Z,21.30
2023-01-29T02:04:08.426Z,27.88
2023-01-29T02:09:33.198Z,26.00
2023-01-29T02:14:38.930Z,22.00
2023-01-29T02:19:53.309Z,23.55
2023-01-29T02:25:09.634Z,25.80
2023-01-29T02:30:18.824Z,24.13
2023-01-29T02:35:26.993Z,25.35
2023-01-29T02:40:32.467Z,24.38
2023-01-29T02:45:44.450Z,24.02
2023-01-29T02:50:50.960Z,23.73
2023-01-29T02:55:57.473Z,25.27
2023-01-29T03:01:04.874Z,27.27
2023-01-29T03:06:20.644Z,24.13
2023-01-29T03:11:23.940Z,28.02
2023-01-29T03:16:32.388Z,23.20
2023-01-29T03:21:55.217Z,25.27
2023-01-29T03:27:17.838Z,24.95
2023-01-29T03:32:23.877Z,28.70
2023-01-29T03:37:30.456Z,24.95
2023-01-29T03:42:41.898Z,24.42
2023-01-29T03:47:48.744Z,22.48
2023-01-29T03:52:53.168Z,24.45
2023-01-29T03:57:59.855Z,23.60
2023-01-29T04:03:09.061Z,20.15
2023-01-29T04:08:16.473Z,22.08
2023-01-29T04:13:20.387Z,21.58
2023-01-29T04:18:26.382Z,22.48
2023-01-29T04:23:40.983Z,21.58
2023-01-29T04:28:55.188Z,22.20
2023-01-29T04:34:06.468Z,22.25
2023-01-29T04:39:14.298Z,20.80
2023-01-29T04:44:20.542Z,22.85
2023-01-29T04:49:32.575Z,19.63
2023-01-29T04:54:43.678Z,24.38
2023-01-29T04:59:53.555Z,21.73
2023-01-29T05:04:58.556Z,20.48
2023-01-29T05:10:01.482Z,22.35
2023-01-29T05:15:06.959Z,22.20
2023-01-29T05:20:13.041Z,22.60
2023-01-29T05:25:23.995Z,22.85
2023-01-29T05:30:26.796Z,22.33
2023-01-29T05:35:31.218Z,25.67
2023-01-29T05:40:33.929Z,22.38
2023-01-29T05:45:36.616Z,23.08
2023-01-29T05:50:40.577Z,23.65
2023-01-29T05:55:45.175Z,21.75
2023-01-29T06:00:47.846Z,22.10
2023-01-29T06:05:51.808Z,22.58
2023-01-29T06:10:54.391Z,26.70
2023-01-29T06:15:57.111Z,21.23
2023-01-29T06:21:03.234Z,22.05
2023-01-29T06:26:07.855Z,22.73
2023-01-29T06:31:27.461Z,23.65
2023-01-29T06:36:35.633Z,19.55
2023-01-29T06:41:38.238Z,20.23
2023-01-29T06:46:40.877Z,20.33
2023-01-29T06:51:44.818Z,22.13
2023-01-29T06:56:47.436Z,21.33
2023-01-29T07:01:50.144Z,21.23
2023-01-29T07:06:54.189Z,22.52
2023-01-29T07:11:56.843Z,21.25
2023-01-29T07:16:59.491Z,22.40
2023-01-29T07:22:03.877Z,22.85
2023-01-29T07:27:06.438Z,22.35
2023-01-29T07:32:09.172Z,23.73
2023-01-29T07:37:13.641Z,22.45
2023-01-29T07:42:16.280Z,22.98
2023-01-29T07:47:19.017Z,23.15
2023-01-29T07:52:22.979Z,21.65
2023-01-29T07:57:25.971Z,23.55
2023-01-29T08:02:28.691Z,20.67
2023-01-29T08:07:32.687Z,23.40
2023-01-29T08:12:35.424Z,22.58
2023-01-29T08:17:52.547Z,21.73
2023-01-29T08:23:02.080Z,23.70
2023-01-29T08:28:05.306Z,23.08
2023-01-29T08:33:07.957Z,22.73
2023-01-29T08:38:11.930Z,22.08
2023-01-29T08:43:14.916Z,23.15
2023-01-29T08:48:17.549Z,24.20
2023-01-29T08:53:31.010Z,22.35
2023-01-29T08:58:33.727Z,21.10
2023-01-29T09:03:36.400Z,20.23
2023-01-29T09:08:40.579Z,19.83
2023-01-29T09:13:43.264Z,20.77
2023-01-29T09:18:45.864Z,21.48
2023-01-29T09:23:49.807Z,25.77
2023-01-29T09:28:52.391Z,21.52
2023-01-29T09:33:54.992Z,21.23
2023-01-29T09:38:58.923Z,21.95
2023-01-29T09:44:03.676Z,19.38
2023-01-29T09:49:10.291Z,20.67
2023-01-29T09:54:18.836Z,21.02
2023-01-29T09:59:24.292Z,21.35
2023-01-29T10:04:56.811Z,22.60
2023-01-29T10:10:14.667Z,20.15
2023-01-29T10:15:27.093Z,21.25
2023-01-29T10:20:38.194Z,21.70
2023-01-29T10:25:42.677Z,20.30
2023-01-29T10:30:49.381Z,20.83
2023-01-29T10:35:55.941Z,21.75
2023-01-29T10:41:09.243Z,21.58
2023-01-29T10:46:22.556Z,20.63
2023-01-29T10:51:43.001Z,22.85
2023-01-29T10:56:55.705Z,22.60
2023-01-29T11:02:00.064Z,20.65
2023-01-29T11:07:02.918Z,22.73
2023-01-29T11:12:12.796Z,24.17
2023-01-29T11:17:17.168Z,21.65
2023-01-29T11:22:21.432Z,22.35
2023-01-29T11:27:29.586Z,20.90
2023-01-29T11:32:35.224Z,21.38
2023-01-29T11:37:39.294Z,21.95
2023-01-29T11:42:43.313Z,20.10
2023-01-29T11:47:50.184Z,20.38
2023-01-29T11:52:53.051Z,22.58
2023-01-29T11:58:52.657Z,20.33
2023-01-29T12:10:34.000Z,20.92
2023-01-29T12:15:36.889Z,119.20
2023-01-29T12:20:42.645Z,184.20
2023-01-29T12:25:52.920Z,403.13
2023-01-29T12:31:04.832Z,426.42
2023-01-29T12:36:12.107Z,390.10
2023-01-29T12:41:26.274Z,382.40
2023-01-29T12:46:30.615Z,387.70
2023-01-29T12:51:38.359Z,358.55
2023-01-29T12:56:47.036Z,361.88
2023-01-29T13:01:53.156Z,370.02
2023-01-29T13:06:59.456Z,352.15
2023-01-29T13:12:05.093Z,337.45
2023-01-29T13:17:10.528Z,324.08
2023-01-29T13:22:18.624Z,302.10
2023-01-29T13:27:25.861Z,318.63
2023-01-29T13:32:29.926Z,312.27
2023-01-29T13:37:34.466Z,274.25
2023-01-29T13:42:43.849Z,277.63
2023-01-29T13:47:46.693Z,257.83
2023-01-29T13:52:54.936Z,246.13
2023-01-29T13:57:59.731Z,244.80
2023-01-29T14:04:04.112Z,245.52
2023-01-29T14:09:55.908Z,228.10
2023-01-29T14:15:22.230Z,229.13
2023-01-29T14:20:39.091Z,214.15
2023-01-29T14:25:47.992Z,192.52
2023-01-29T14:30:52.588Z,213.38
2023-01-29T14:35:57.348Z,191.07
2023-01-29T14:41:10.675Z,180.20
2023-01-29T14:46:45.517Z,197.38
2023-01-29T14:51:48.577Z,180.38
2023-01-29T14:56:58.528Z,165.95
2023-01-29T15:02:06.643Z,158.07
2023-01-29T15:07:18.897Z,151.57
2023-01-29T15:12:26.953Z,146.73
2023-01-29T15:17:34.146Z,147.02
2023-01-29T15:22:43.592Z,137.65
2023-01-29T15:27:46.706Z,135.15
2023-01-29T15:32:50.936Z,131.70
2023-01-29T15:38:01.190Z,118.35
2023-01-29T15:43:03.889Z,118.70
2023-01-29T15:48:14.282Z,110.57
2023-01-29T15:53:19.265Z,110.80
2023-01-29T15:58:24.920Z,116.15
2023-01-29T16:03:32.105Z,104.60
2023-01-29T16:08:35.270Z,99.85
2023-01-29T16:13:42.791Z,91.07
2023-01-29T16:18:59.593Z,92.18
2023-01-29T16:24:07.469Z,90.28
2023-01-29T16:29:12.321Z,86.50
2023-01-29T16:34:21.772Z,86.90
2023-01-29T16:39:27.046Z,80.07
2023-01-29T16:44:34.166Z,79.72
2023-01-29T16:49:52.649Z,82.57
2023-01-29T16:55:15.745Z,75.68
2023-01-29T17:00:23.412Z,65.38
2023-01-29T17:05:30.512Z,66.10
2023-01-29T17:10:33.734Z,66.18
2023-01-29T17:15:38.251Z,63.53
2023-01-29T17:20:42.332Z,63.25
2023-01-29T17:25:45.150Z,64.20
2023-01-29T17:31:00.185Z,61.13
2023-01-29T17:36:12.428Z,60.13
2023-01-29T17:41:19.000Z,58.20
2023-01-29T17:46:22.721Z,56.42
2023-01-29T17:51:26.935Z,59.28
2023-01-29T17:56:30.517Z,53.10
2023-01-29T18:01:33.252Z,52.75
2023-01-29T18:06:37.448Z,52.58
2023-01-29T18:11:40.194Z,49.55
2023-01-29T18:16:43.997Z,43.13
2023-01-29T18:21:48.185Z,47.17
2023-01-29T18:26:51.097Z,43.97
2023-01-29T18:31:54.904Z,45.10
2023-01-29T18:36:59.715Z,44.78
2023-01-29T18:42:02.376Z,42.22
2023-01-29T18:47:05.971Z,40.28
2023-01-29T18:52:10.074Z,45.20
2023-01-29T18:58:27.126Z,38.92
2023-01-29T19:02:35.467Z,41.15
2023-01-29T19:07:39.530Z,37.70
2023-01-29T19:12:42.306Z,38.80
2023-01-29T19:17:45.013Z,37.10
2023-01-29T19:22:49.202Z,41.85
2023-01-29T19:27:52.033Z,36.47
2023-01-29T19:32:54.729Z,31.83
2023-01-29T19:37:58.785Z,33.75
2023-01-29T19:43:01.477Z,35.58
2023-01-29T19:48:04.442Z,36.22
2023-01-29T19:53:08.481Z,29.48
2023-01-29T19:58:11.509Z,34.05
2023-01-29T20:03:14.175Z,32.60
2023-01-29T20:08:18.453Z,29.95
2023-01-29T20:13:21.122Z,28.67
2023-01-29T20:18:24.057Z,27.75
2023-01-29T20:23:37.612Z,31.27
2023-01-29T20:28:41.369Z,26.27
2023-01-29T20:33:44.493Z,28.67
2023-01-29T20:38:48.615Z,29.77
2023-01-29T20:43:51.274Z,26.20
2023-01-29T20:48:54.450Z,25.13
2023-01-29T20:53:58.504Z,26.20
2023-01-29T20:59:02.338Z,24.17
2023-01-29T21:04:05.101Z,22.67
2023-01-29T21:09:09.425Z,21.17
2023-01-29T21:14:12.459Z,23.48
2023-01-29T21:19:15.639Z,22.95
2023-01-29T21:24:19.830Z,23.25
2023-01-29T21:29:22.527Z,21.13
2023-01-29T21:34:25.617Z,23.77
2023-01-29T21:39:29.672Z,24.58
2023-01-29T21:44:33.586Z,21.02
2023-01-29T21:49:36.315Z,21.27
2023-01-29T21:54:40.848Z,20.77
2023-01-29T21:59:43.724Z,20.38
2023-01-29T22:04:52.173Z,19.08
2023-01-29T22:09:56.167Z,19.38
2023-01-29T22:14:58.786Z,18.30
2023-01-29T22:20:01.483Z,20.05
2023-01-29T22:25:06.467Z,16.85
2023-01-29T22:30:10.625Z,16.17
2023-01-29T22:35:13.336Z,16.80
2023-01-29T22:40:17.886Z,15.95
2023-01-29T22:45:20.695Z,17.08
2023-01-29T22:50:23.362Z,15.10
2023-01-29T22:55:27.419Z,16.58
2023-01-29T23:00:30.159Z,14.98
2023-01-29T23:05:32.838Z,17.15
2023-01-29T23:10:36.963Z,16.13
2023-01-29T23:15:39.745Z,14.90
2023-01-29T23:20:44.116Z,14.85
2023-01-29T23:26:05.755Z,15.05
2023-01-29T23:31:08.479Z,13.80
2023-01-29T23:36:11.298Z,15.18
2023-01-29T23:41:15.414Z,14.02
2023-01-29T23:46:18.104Z,11.90
2023-01-29T23:51:20.820Z,14.85
2023-01-29T23:56:24.997Z,12.60
